Time;durP1;ratioP1;P1;durP2;ratioP2;P2;SDS_P1;SDS_P2;PMS_P1;PMS_P2;Temp;Humidity;BMP_temperature;BMP_pressure;BME280_temperature;BME280_humidity;BME280_pressure;Samples;Min_cycle;Max_cycle;Signal;HPM_P1;HPM_P2
2022/11/09 00:00:41;;;;;;;4.70;3.38;;;18.00;59.60;;;;;;5017042;28;20192;-70
2022/11/09 00:03:08;;;;;;;4.32;3.30;;;18.00;59.80;;;;;;5017006;28;20655;-70
2022/11/09 00:05:35;;;;;;;4.30;3.38;;;18.00;59.50;;;;;;5016618;28;20207;-70
2022/11/09 00:08:05;;;;;;;3.60;3.30;;;18.00;59.60;;;;;;5016547;28;20216;-70
2022/11/09 00:10:32;;;;;;;3.67;3.15;;;18.00;59.50;;;;;;5016778;28;20198;-70
2022/11/09 00:13:00;;;;;;;4.80;3.20;;;17.90;59.50;;;;;;5016779;28;20200;-70
2022/11/09 00:15:27;;;;;;;3.97;2.85;;;17.90;59.50;;;;;;5016443;28;20192;-69
2022/11/09 00:17:54;;;;;;;3.28;2.95;;;17.90;59.40;;;;;;5016511;28;20243;-69
2022/11/09 00:20:21;;;;;;;3.72;3.17;;;17.90;59.50;;;;;;5016385;28;20207;-69
2022/11/09 00:22:48;;;;;;;3.78;3.25;;;17.90;59.40;;;;;;5016386;28;20203;-69
2022/11/09 00:25:15;;;;;;;3.30;2.95;;;17.90;59.50;;;;;;5017307;28;20544;-69
2022/11/09 00:27:42;;;;;;;3.33;3.00;;;17.90;59.40;;;;;;5016603;28;20216;-69
2022/11/09 00:30:12;;;;;;;3.80;2.67;;;17.90;59.40;;;;;;5016562;28;20654;-69
2022/11/09 00:32:39;;;;;;;3.78;2.90;;;17.90;59.50;;;;;;5016064;28;20207;-69
2022/11/09 00:35:07;;;;;;;4.85;3.00;;;17.90;59.50;;;;;;5016354;28;20211;-69
2022/11/09 00:37:35;;;;;;;3.60;2.95;;;17.90;59.50;;;;;;5016550;28;20254;-71
2022/11/09 00:40:02;;;;;;;3.42;2.78;;;17.80;59.40;;;;;;5016239;28;20607;-71
2022/11/09 00:42:29;;;;;;;4.20;2.75;;;17.80;59.40;;;;;;5015890;28;20211;-71
2022/11/09 00:44:57;;;;;;;4.18;2.95;;;17.80;59.50;;;;;;5015952;28;20683;-69
2022/11/09 00:47:25;;;;;;;4.40;3.10;;;17.90;59.50;;;;;;5015253;28;20259;-69
2022/11/09 00:49:53;;;;;;;3.65;2.88;;;17.80;59.40;;;;;;5033539;28;20208;-69
2022/11/09 00:52:20;;;;;;;3.25;2.60;;;17.80;59.40;;;;;;5016344;28;20220;-69
2022/11/09 00:54:47;;;;;;;3.03;2.63;;;17.80;59.50;;;;;;5015935;28;20262;-69
2022/11/09 00:57:14;;;;;;;3.22;2.80;;;17.80;59.50;;;;;;5015815;28;20243;-69
2022/11/09 00:59:44;;;;;;;4.28;2.63;;;17.80;59.50;;;;;;5015677;28;20259;-69
2022/11/09 01:02:11;;;;;;;3.22;2.92;;;17.80;59.50;;;;;;5016556;28;20242;-69
2022/11/09 01:04:40;;;;;;;3.10;2.80;;;17.80;59.50;;;;;;5015711;28;20200;-69
2022/11/09 01:07:07;;;;;;;3.17;2.60;;;17.80;59.50;;;;;;5016463;28;20216;-69
2022/11/09 01:09:35;;;;;;;3.33;3.03;;;17.80;59.50;;;;;;5015734;28;20204;-69
2022/11/09 01:12:02;;;;;;;3.40;2.70;;;17.80;59.50;;;;;;5016395;28;20605;-69
2022/11/09 01:14:29;;;;;;;4.20;2.88;;;17.70;59.40;;;;;;5015771;28;20716;-69
2022/11/09 01:16:57;;;;;;;4.00;3.00;;;17.80;59.60;;;;;;5015541;28;20247;-69
2022/11/09 01:19:26;;;;;;;3.60;2.97;;;17.80;59.60;;;;;;5015918;28;20214;-69
2022/11/09 01:21:54;;;;;;;3.97;2.85;;;17.80;59.60;;;;;;5015796;28;20200;-69
2022/11/09 01:24:21;;;;;;;3.88;2.65;;;17.70;60.00;;;;;;5015622;28;20196;-69
2022/11/09 01:29:28;;;;;;;3.83;3.00;;;17.70;59.50;;;;;;5044841;22;20231;-69
2022/11/09 01:31:56;;;;;;;3.33;3.03;;;17.70;59.40;;;;;;5032204;28;20208;-72
2022/11/09 01:36:50;;;;;;;3.30;2.65;;;17.70;59.50;;;;;;4987994;28;20218;-70
2022/11/09 01:39:19;;;;;;;3.03;2.72;;;17.70;59.70;;;;;;4973300;28;20226;-70
2022/11/09 01:41:48;;;;;;;3.30;3.00;;;17.70;59.50;;;;;;4974890;28;20174;-70
2022/11/09 01:44:16;;;;;;;4.22;2.90;;;17.70;59.40;;;;;;4973451;28;20202;-70
2022/11/09 01:46:47;;;;;;;2.95;2.63;;;17.70;59.60;;;;;;4973224;28;20218;-70
2022/11/09 01:49:19;;;;;;;4.60;2.78;;;17.70;59.60;;;;;;4973517;28;20202;-69
2022/11/09 01:51:49;;;;;;;3.10;2.80;;;17.70;59.60;;;;;;4973834;28;20194;-70
2022/11/09 01:54:19;;;;;;;2.75;2.55;;;17.70;60.20;;;;;;4973817;28;20198;-70
2022/11/09 01:56:47;;;;;;;3.20;2.90;;;17.70;60.20;;;;;;4973419;28;20222;-70
2022/11/09 01:59:16;;;;;;;3.25;2.80;;;17.60;59.50;;;;;;4977576;28;20218;-70
2022/11/09 02:01:44;;;;;;;3.35;2.63;;;17.70;59.50;;;;;;4978245;28;20229;-70
2022/11/09 02:04:12;;;;;;;3.38;3.08;;;17.70;59.60;;;;;;4978417;28;20190;-69
2022/11/09 02:06:40;;;;;;;3.17;2.88;;;17.70;59.50;;;;;;4979701;28;20297;-69
2022/11/09 02:09:10;;;;;;;3.15;2.80;;;17.70;59.60;;;;;;5004440;22;20533;-70
2022/11/09 02:11:38;;;;;;;3.53;2.80;;;17.60;59.50;;;;;;5017652;28;20192;-69
2022/11/09 02:14:05;;;;;;;3.30;2.83;;;17.70;59.50;;;;;;5016141;28;20197;-71
2022/11/09 02:16:32;;;;;;;3.85;2.90;;;17.60;59.50;;;;;;5016978;28;20205;-70
2022/11/09 02:19:00;;;;;;;3.10;2.80;;;17.70;59.60;;;;;;5016339;28;20212;-71
2022/11/09 02:21:29;;;;;;;3.53;2.80;;;17.70;59.70;;;;;;5016093;28;20200;-71
2022/11/09 02:23:56;;;;;;;3.33;3.03;;;17.60;59.50;;;;;;5016930;28;20196;-71
2022/11/09 02:26:27;;;;;;;3.45;3.10;;;17.60;59.60;;;;;;5015620;28;20706;-71
2022/11/09 02:28:55;;;;;;;3.50;3.10;;;17.60;59.60;;;;;;5033439;23;20227;-70
2022/11/09 02:31:24;;;;;;;3.92;2.78;;;17.60;59.60;;;;;;5035374;28;20214;-67
2022/11/09 02:33:54;;;;;;;3.80;3.25;;;17.60;59.60;;;;;;5035122;28;20687;-67
2022/11/09 02:36:22;;;;;;;3.22;2.70;;;17.60;59.50;;;;;;5035021;28;20200;-67
2022/11/09 02:38:51;;;;;;;2.95;2.75;;;17.60;59.60;;;;;;5036359;28;20216;-67
2022/11/09 02:41:20;;;;;;;3.53;3.08;;;17.60;59.60;;;;;;5034786;28;20275;-67
2022/11/09 02:43:47;;;;;;;4.10;3.30;;;17.60;59.50;;;;;;5034843;28;20206;-67
2022/11/09 02:46:25;;;;;;;3.58;3.28;;;17.60;59.30;;;;;;5034651;28;20654;-67
2022/11/09 02:48:52;;;;;;;3.45;3.03;;;17.60;59.40;;;;;;5035386;28;20184;-67
2022/11/09 02:51:19;;;;;;;3.15;2.85;;;17.60;59.30;;;;;;5035732;28;20198;-67
2022/11/09 02:53:48;;;;;;;3.65;3.03;;;17.60;59.50;;;;;;5034659;28;20626;-67
2022/11/09 02:56:16;;;;;;;3.90;3.45;;;17.60;59.40;;;;;;5035296;28;20196;-67
2022/11/09 02:58:44;;;;;;;3.50;3.20;;;17.60;59.20;;;;;;5034824;28;20223;-67
2022/11/09 03:01:11;;;;;;;4.32;3.67;;;17.70;59.20;;;;;;5034622;28;20203;-67
2022/11/09 03:03:39;;;;;;;4.15;3.75;;;17.70;59.20;;;;;;5034552;28;20215;-67
2022/11/09 03:06:06;;;;;;;3.50;3.15;;;17.70;58.90;;;;;;5035866;28;20185;-67
2022/11/09 03:08:33;;;;;;;4.22;3.30;;;17.70;59.00;;;;;;5035295;28;20191;-68
2022/11/09 03:11:01;;;;;;;4.15;3.50;;;17.70;58.90;;;;;;5034523;28;20270;-67
2022/11/09 03:13:30;;;;;;;3.67;3.25;;;17.70;58.90;;;;;;5034367;28;20192;-67
2022/11/09 03:15:57;;;;;;;3.50;2.90;;;17.70;59.00;;;;;;5034258;28;20228;-67
2022/11/09 03:18:24;;;;;;;3.55;3.10;;;17.70;59.00;;;;;;5034377;28;20220;-67
2022/11/09 03:20:52;;;;;;;4.18;3.78;;;17.70;59.00;;;;;;5036200;28;20200;-67
2022/11/09 03:23:19;;;;;;;3.75;3.35;;;17.70;58.90;;;;;;5035646;28;20219;-67
2022/11/09 03:25:46;;;;;;;3.50;3.17;;;17.70;58.90;;;;;;5018053;28;20242;-67
2022/11/09 03:28:14;;;;;;;3.40;3.10;;;17.70;58.90;;;;;;5034044;28;20658;-67
2022/11/09 03:30:43;;;;;;;4.63;3.25;;;17.70;59.10;;;;;;5034234;28;20200;-67
2022/11/09 03:33:11;;;;;;;3.47;3.17;;;17.70;58.90;;;;;;5034342;28;20198;-68
2022/11/09 03:35:39;;;;;;;4.07;3.50;;;17.70;58.90;;;;;;5033883;28;20199;-68
2022/11/09 03:38:06;;;;;;;3.47;3.15;;;17.70;58.90;;;;;;5033921;28;20309;-68
2022/11/09 03:40:33;;;;;;;3.65;3.30;;;17.70;59.00;;;;;;5033823;28;20570;-68
2022/11/09 03:43:00;;;;;;;4.22;3.65;;;17.70;58.90;;;;;;5033812;28;20200;-68
2022/11/09 03:45:27;;;;;;;3.78;3.30;;;17.70;59.00;;;;;;5034005;28;20655;-68
2022/11/09 03:47:58;;;;;;;3.33;3.03;;;17.70;59.00;;;;;;5033668;28;20262;-68
2022/11/09 03:50:26;;;;;;;4.28;3.22;;;17.70;59.10;;;;;;5033614;28;20192;-68
2022/11/09 03:52:53;;;;;;;3.97;3.00;;;17.70;59.10;;;;;;5033485;28;20204;-68
2022/11/09 03:55:20;;;;;;;3.17;2.88;;;17.70;58.90;;;;;;5033821;28;20204;-68
2022/11/09 03:57:47;;;;;;;3.25;2.90;;;17.70;58.90;;;;;;5033358;28;20254;-68
2022/11/09 04:00:16;;;;;;;3.58;3.20;;;17.70;59.00;;;;;;5033511;28;20196;-68
2022/11/09 04:02:43;;;;;;;3.70;3.30;;;17.70;58.90;;;;;;5033613;28;20202;-68
2022/11/09 04:05:12;;;;;;;3.30;3.00;;;17.70;58.90;;;;;;5033907;28;20572;-68
2022/11/09 04:07:39;;;;;;;3.13;2.80;;;17.70;58.90;;;;;;5035305;28;20220;-68
2022/11/09 04:10:07;;;;;;;3.50;3.20;;;17.70;58.90;;;;;;5033740;28;20200;-68
2022/11/09 04:12:34;;;;;;;3.47;3.17;;;17.70;58.90;;;;;;5033571;28;20200;-68
2022/11/09 04:15:01;;;;;;;3.58;3.28;;;17.70;58.90;;;;;;5034771;28;20192;-68
2022/11/09 04:17:28;;;;;;;3.15;2.85;;;17.70;58.80;;;;;;5033847;28;20299;-68
2022/11/09 04:19:56;;;;;;;3.47;3.17;;;17.70;58.90;;;;;;5042852;28;20219;-68
2022/11/09 04:22:24;;;;;;;3.42;3.10;;;17.70;58.90;;;;;;5057588;28;20230;-68
2022/11/09 04:24:52;;;;;;;3.80;3.40;;;17.70;58.80;;;;;;5053556;28;20195;-68
2022/11/09 04:27:19;;;;;;;3.35;2.92;;;17.70;58.80;;;;;;5034142;28;20277;-68
2022/11/09 04:29:46;;;;;;;3.10;2.80;;;17.70;58.80;;;;;;5033419;28;20212;-68
2022/11/09 04:32:13;;;;;;;3.10;2.80;;;17.70;59.10;;;;;;5033392;28;20207;-68
2022/11/09 04:34:42;;;;;;;3.03;2.80;;;17.70;59.10;;;;;;5034452;28;20202;-68
2022/11/09 04:37:09;;;;;;;3.00;2.70;;;17.80;59.10;;;;;;5033245;28;20223;-68
2022/11/09 04:39:37;;;;;;;3.88;3.10;;;17.80;58.90;;;;;;5017001;28;20683;-68
2022/11/09 04:42:04;;;;;;;4.07;3.13;;;17.80;58.90;;;;;;5033355;28;20200;-68
2022/11/09 04:44:31;;;;;;;3.13;2.90;;;17.80;58.70;;;;;;5032858;28;20238;-68
2022/11/09 04:46:58;;;;;;;3.13;2.83;;;17.90;58.70;;;;;;5032686;28;20624;-68
2022/11/09 04:49:25;;;;;;;3.47;3.17;;;17.90;58.60;;;;;;5034271;28;20185;-67
2022/11/09 04:51:52;;;;;;;3.50;3.20;;;17.90;58.60;;;;;;5032822;28;20682;-67
2022/11/09 04:54:19;;;;;;;3.55;3.25;;;18.00;58.60;;;;;;5032607;28;20204;-67
2022/11/09 04:56:48;;;;;;;3.90;3.20;;;18.00;58.60;;;;;;5033568;28;20212;-67
2022/11/09 04:59:15;;;;;;;4.38;3.60;;;18.00;58.40;;;;;;5032460;28;20701;-67
2022/11/09 05:01:42;;;;;;;3.42;3.05;;;18.00;58.40;;;;;;5032397;28;20196;-67
2022/11/09 05:04:09;;;;;;;3.80;3.40;;;18.00;58.40;;;;;;5032559;28;20203;-67
2022/11/09 05:06:36;;;;;;;4.00;3.60;;;18.10;58.30;;;;;;5032344;28;20219;-67
2022/11/09 05:09:04;;;;;;;4.22;3.20;;;18.10;57.90;;;;;;5032405;28;20559;-67
2022/11/09 05:11:32;;;;;;;4.13;3.50;;;18.10;57.90;;;;;;5032862;28;20196;-67
2022/11/09 05:14:00;;;;;;;3.70;3.30;;;18.10;58.10;;;;;;5032419;28;20196;-67
2022/11/09 05:16:28;;;;;;;3.47;3.17;;;18.10;58.10;;;;;;5032652;28;20239;-67
2022/11/09 05:18:55;;;;;;;3.58;3.20;;;18.10;57.90;;;;;;5032401;28;20222;-67
2022/11/09 05:21:22;;;;;;;3.67;3.38;;;18.10;57.90;;;;;;5032202;28;20200;-68
2022/11/09 05:23:57;;;;;;;3.70;3.38;;;18.10;58.00;;;;;;5032859;28;20200;-69
2022/11/09 05:26:27;;;;;;;4.18;3.58;;;18.10;58.00;;;;;;5032893;28;20226;-69
2022/11/09 05:28:54;;;;;;;4.13;3.58;;;18.10;58.00;;;;;;5032064;28;20512;-68
2022/11/09 05:31:22;;;;;;;3.70;3.40;;;18.10;57.90;;;;;;5032491;28;20208;-68
2022/11/09 05:33:50;;;;;;;3.88;3.47;;;18.10;57.70;;;;;;5035551;28;20196;-68
2022/11/09 05:36:17;;;;;;;4.00;3.42;;;18.10;57.80;;;;;;5036386;28;20200;-68
2022/11/09 05:38:44;;;;;;;4.10;3.70;;;18.10;57.90;;;;;;5036033;28;20273;-68
2022/11/09 05:41:12;;;;;;;3.65;3.35;;;18.10;57.90;;;;;;5035862;28;20204;-68
2022/11/09 05:43:39;;;;;;;4.53;3.67;;;18.10;58.00;;;;;;5036963;28;20235;-68
2022/11/09 05:46:08;;;;;;;3.85;3.47;;;18.10;58.10;;;;;;5035712;28;20203;-68
2022/11/09 05:48:36;;;;;;;3.67;3.38;;;18.10;58.20;;;;;;5035862;28;20259;-68
2022/11/09 05:51:04;;;;;;;4.20;3.50;;;18.10;58.40;;;;;;5035764;28;20254;-68
2022/11/09 05:53:31;;;;;;;4.63;3.13;;;18.10;58.50;;;;;;5036045;28;20601;-68
2022/11/09 05:56:02;;;;;;;3.97;3.55;;;18.00;58.40;;;;;;5035926;28;20682;-68
2022/11/09 05:58:29;;;;;;;4.20;3.78;;;18.00;58.70;;;;;;5037065;28;20251;-68
2022/11/09 06:00:55;;;;;;;3.78;3.38;;;18.00;58.70;;;;;;5035737;28;20200;-68
2022/11/09 06:03:22;;;;;;;4.10;3.47;;;18.10;58.80;;;;;;5035647;28;20586;-69
2022/11/09 06:05:51;;;;;;;3.55;3.20;;;18.00;58.40;;;;;;5035907;28;20203;-69
2022/11/09 06:08:18;;;;;;;4.68;3.50;;;18.10;58.70;;;;;;5036751;28;20300;-69
2022/11/09 06:10:45;;;;;;;3.22;2.92;;;18.10;58.70;;;;;;5035414;28;20196;-68
2022/11/09 06:13:12;;;;;;;3.30;3.00;;;18.10;58.40;;;;;;5035166;28;20254;-68
2022/11/09 06:15:39;;;;;;;3.22;2.92;;;18.10;58.40;;;;;;5035568;28;20207;-68
2022/11/09 06:18:06;;;;;;;3.22;2.92;;;18.10;58.60;;;;;;5035418;28;20224;-68
2022/11/09 06:20:33;;;;;;;3.30;2.83;;;18.10;58.50;;;;;;5036393;28;20558;-68
2022/11/09 06:23:02;;;;;;;3.50;3.20;;;18.10;58.40;;;;;;5036604;28;20184;-68
2022/11/09 06:25:30;;;;;;;3.42;2.85;;;18.10;58.50;;;;;;5036279;28;20204;-68
2022/11/09 06:27:57;;;;;;;3.20;2.90;;;18.00;58.40;;;;;;5034925;28;20226;-68
2022/11/09 06:30:24;;;;;;;5.07;3.10;;;18.00;58.40;;;;;;5036794;28;20545;-68
2022/11/09 06:32:51;;;;;;;3.50;3.20;;;18.10;58.40;;;;;;5035387;28;20295;-68
2022/11/09 06:35:18;;;;;;;3.53;3.10;;;18.00;58.30;;;;;;5034970;28;20224;-68
2022/11/09 06:37:45;;;;;;;3.53;3.22;;;18.10;58.40;;;;;;5034930;28;20220;-68
2022/11/09 06:40:15;;;;;;;4.70;3.15;;;18.00;58.30;;;;;;5035047;28;20212;-68
2022/11/09 06:42:42;;;;;;;3.65;3.35;;;18.10;58.30;;;;;;5034911;28;20218;-68
2022/11/09 06:45:10;;;;;;;3.50;3.20;;;18.10;58.10;;;;;;5033976;28;20204;-68
2022/11/09 06:47:37;;;;;;;3.85;2.97;;;18.10;58.10;;;;;;5034519;28;20230;-68
2022/11/09 06:50:05;;;;;;;4.13;3.22;;;18.10;57.90;;;;;;5034790;28;20548;-68
2022/11/09 06:52:32;;;;;;;3.60;3.30;;;18.10;57.90;;;;;;5034734;28;20200;-68
2022/11/09 06:54:59;;;;;;;3.85;3.08;;;18.10;57.80;;;;;;5034718;28;20674;-68
2022/11/09 06:57:30;;;;;;;4.93;3.45;;;18.10;57.70;;;;;;5034738;28;20270;-68
2022/11/09 06:59:59;;;;;;;4.68;3.15;;;18.10;57.70;;;;;;5035484;28;20223;-68
2022/11/09 07:02:26;;;;;;;4.63;3.10;;;18.10;57.60;;;;;;5019320;28;20211;-68
2022/11/09 07:04:54;;;;;;;4.00;3.22;;;18.10;57.60;;;;;;5036334;28;20291;-68
2022/11/09 07:07:21;;;;;;;3.20;2.90;;;18.20;57.60;;;;;;5035347;28;20235;-68
2022/11/09 07:09:48;;;;;;;4.57;3.20;;;18.20;57.80;;;;;;5034755;28;20564;-68
2022/11/09 07:12:15;;;;;;;3.47;3.17;;;18.20;57.80;;;;;;5035971;28;20199;-68
2022/11/09 07:14:43;;;;;;;3.35;3.00;;;18.20;57.80;;;;;;5035910;28;20218;-68
2022/11/09 07:17:10;;;;;;;3.55;3.25;;;18.20;57.80;;;;;;5034773;28;20212;-68
2022/11/09 07:19:37;;;;;;;3.40;3.10;;;18.20;57.70;;;;;;5034711;28;20220;-68
2022/11/09 07:22:05;;;;;;;4.00;3.03;;;18.30;57.60;;;;;;5036322;28;20558;-68
2022/11/09 07:24:32;;;;;;;4.28;3.33;;;18.30;57.50;;;;;;5036001;28;20223;-68
2022/11/09 07:27:01;;;;;;;3.30;2.90;;;18.40;57.60;;;;;;5018632;28;20591;-68
2022/11/09 07:29:28;;;;;;;3.60;3.30;;;18.40;57.60;;;;;;5034496;28;20199;-68
2022/11/09 07:31:56;;;;;;;3.50;3.20;;;18.40;57.50;;;;;;5035931;28;20204;-68
2022/11/09 07:34:23;;;;;;;3.78;3.10;;;18.50;57.50;;;;;;5019054;28;20195;-68
2022/11/09 07:36:53;;;;;;;3.90;2.90;;;18.50;57.40;;;;;;5035069;28;20216;-68
2022/11/09 07:39:19;;;;;;;3.15;2.85;;;18.50;57.40;;;;;;5034281;28;20266;-68
2022/11/09 07:41:47;;;;;;;4.75;2.80;;;18.50;57.40;;;;;;5035364;28;20203;-68
2022/11/09 07:44:17;;;;;;;3.50;2.63;;;18.50;57.40;;;;;;5034188;28;20197;-68
2022/11/09 07:46:44;;;;;;;3.00;2.70;;;18.50;57.40;;;;;;5033815;28;20219;-68
2022/11/09 07:49:12;;;;;;;3.35;2.50;;;18.50;57.40;;;;;;5034042;28;20200;-68
2022/11/09 07:51:40;;;;;;;2.70;2.50;;;18.50;57.30;;;;;;5034741;28;20287;-68
2022/11/09 07:54:07;;;;;;;3.30;2.80;;;18.50;57.40;;;;;;5034042;28;20562;-68
2022/11/09 07:56:34;;;;;;;2.42;2.22;;;18.50;57.30;;;;;;5033559;28;20216;-68
2022/11/09 07:59:02;;;;;;;3.47;3.17;;;18.50;57.40;;;;;;5033731;28;20230;-68
2022/11/09 08:01:29;;;;;;;3.40;3.10;;;18.50;57.40;;;;;;5033306;28;20210;-68
2022/11/09 08:03:56;;;;;;;3.97;3.58;;;18.50;57.40;;;;;;5033318;28;20621;-68
2022/11/09 08:06:26;;;;;;;3.80;3.40;;;18.50;57.40;;;;;;5033227;28;20569;-68
2022/11/09 08:08:54;;;;;;;3.80;3.40;;;18.60;57.50;;;;;;5033326;28;20596;-68
2022/11/09 08:11:21;;;;;;;4.05;3.65;;;18.60;57.50;;;;;;5034806;28;20204;-68
2022/11/09 08:13:49;;;;;;;3.78;3.28;;;18.60;57.40;;;;;;5034335;28;20286;-68
2022/11/09 08:16:15;;;;;;;3.65;3.10;;;18.60;57.40;;;;;;5033153;28;20242;-68
2022/11/09 08:18:43;;;;;;;3.50;3.20;;;18.60;57.40;;;;;;5035012;28;20223;-68
2022/11/09 08:21:10;;;;;;;3.17;2.83;;;18.60;57.40;;;;;;5033199;28;20748;-68
2022/11/09 08:23:39;;;;;;;3.67;3.17;;;18.60;57.40;;;;;;5032973;28;20192;-68
2022/11/09 08:26:06;;;;;;;3.08;2.53;;;18.60;57.40;;;;;;5032641;28;20204;-68
2022/11/09 08:28:33;;;;;;;3.45;3.03;;;18.60;57.40;;;;;;5032778;28;20196;-68
2022/11/09 08:31:01;;;;;;;3.60;3.05;;;18.60;57.40;;;;;;5034100;28;20184;-67
2022/11/09 08:33:30;;;;;;;4.07;3.35;;;18.60;57.40;;;;;;5032820;28;20200;-67
2022/11/09 08:35:57;;;;;;;4.30;3.67;;;18.70;57.40;;;;;;5016450;28;20192;-67
2022/11/09 08:38:25;;;;;;;5.13;3.95;;;18.70;57.30;;;;;;5032706;28;20223;-67
2022/11/09 08:40:57;;;;;;;5.80;4.55;;;18.70;57.20;;;;;;5033804;28;20200;-67
2022/11/09 08:43:25;;;;;;;6.65;5.55;;;18.60;57.30;;;;;;5032922;28;20631;-69
2022/11/09 08:45:52;;;;;;;4.30;3.85;;;18.60;57.30;;;;;;5033023;28;20203;-68
2022/11/09 08:48:19;;;;;;;4.78;3.83;;;18.70;57.40;;;;;;5033510;28;20243;-70
2022/11/09 08:50:51;;;;;;;4.00;3.60;;;18.60;57.20;;;;;;5033892;28;20192;-68
2022/11/09 08:53:18;;;;;;;4.38;3.28;;;18.70;57.40;;;;;;5032761;28;20250;-68
2022/11/09 08:55:45;;;;;;;4.05;3.10;;;18.70;57.30;;;;;;5032473;28;20196;-68
2022/11/09 08:58:13;;;;;;;3.70;2.65;;;18.70;57.00;;;;;;5016549;28;20220;-68
2022/11/09 09:00:41;;;;;;;3.15;2.85;;;18.70;57.50;;;;;;5032352;28;20216;-68
2022/11/09 09:03:08;;;;;;;2.63;2.42;;;18.60;57.30;;;;;;5016273;28;20235;-68
2022/11/09 09:05:35;;;;;;;3.30;2.80;;;18.70;57.50;;;;;;5033791;28;20188;-68
2022/11/09 09:08:03;;;;;;;3.65;3.00;;;18.70;57.50;;;;;;5031901;28;20216;-68
2022/11/09 09:10:31;;;;;;;4.15;3.35;;;18.70;57.40;;;;;;5032563;28;20192;-68
2022/11/09 09:12:58;;;;;;;3.72;3.42;;;18.70;57.40;;;;;;5032482;28;20196;-68
2022/11/09 09:15:26;;;;;;;3.65;3.35;;;18.80;57.40;;;;;;5033028;28;20200;-68
2022/11/09 09:17:53;;;;;;;4.07;3.22;;;18.80;57.30;;;;;;5032414;28;20220;-68
2022/11/09 09:20:20;;;;;;;3.45;3.15;;;18.80;57.20;;;;;;5032437;28;20216;-68
2022/11/09 09:22:47;;;;;;;3.40;3.10;;;18.80;57.10;;;;;;5032755;28;20200;-68
2022/11/09 09:25:14;;;;;;;3.60;3.30;;;18.80;57.70;;;;;;5032406;28;20204;-68
2022/11/09 09:27:43;;;;;;;3.20;2.90;;;18.80;57.10;;;;;;5017067;28;20231;-68
2022/11/09 09:30:11;;;;;;;3.13;2.80;;;18.80;57.10;;;;;;5032640;28;20203;-68
2022/11/09 09:32:40;;;;;;;3.15;2.85;;;18.80;57.20;;;;;;5033427;28;20564;-68
2022/11/09 09:35:07;;;;;;;2.67;2.45;;;18.80;57.10;;;;;;5034368;28;20192;-68
2022/11/09 09:37:34;;;;;;;3.05;2.50;;;18.90;57.20;;;;;;5032780;28;20223;-68
2022/11/09 09:40:01;;;;;;;3.17;2.80;;;18.90;57.00;;;;;;5032737;28;20589;-68
2022/11/09 09:42:31;;;;;;;2.95;2.70;;;18.90;56.90;;;;;;5032802;28;20208;-68
2022/11/09 09:45:00;;;;;;;3.05;2.80;;;19.00;56.80;;;;;;5045437;28;20188;-68
2022/11/09 09:47:39;;;;;;;2.70;2.50;;;19.10;56.70;;;;;;5057474;28;20193;-68
2022/11/09 09:50:10;;;;;;;2.97;2.60;;;19.10;56.70;;;;;;5046825;28;20530;-68
2022/11/09 09:52:39;;;;;;;2.90;2.60;;;19.10;56.60;;;;;;5034018;28;20195;-68
2022/11/09 09:55:09;;;;;;;2.83;2.63;;;19.20;56.60;;;;;;5032573;28;20192;-68
2022/11/09 09:57:36;;;;;;;3.20;2.70;;;19.20;56.40;;;;;;5033530;28;20322;-68
2022/11/09 10:00:20;;;;;;;2.88;2.63;;;19.30;56.30;;;;;;5032740;28;20220;-68
2022/11/09 10:02:48;;;;;;;3.13;2.47;;;19.30;56.20;;;;;;5032549;28;20203;-68
2022/11/09 10:05:17;;;;;;;2.70;2.30;;;19.40;56.10;;;;;;5032248;28;20203;-68
2022/11/09 10:07:51;;;;;;;2.53;2.33;;;19.40;56.10;;;;;;5033319;28;20204;-68
2022/11/09 10:10:38;;;;;;;2.75;2.53;;;19.40;55.90;;;;;;5032156;28;20534;-68
2022/11/09 10:13:34;;;;;;;2.75;2.50;;;19.50;56.00;;;;;;5033252;28;20278;-68
2022/11/09 10:16:04;;;;;;;2.97;2.38;;;19.50;56.00;;;;;;5032403;28;20197;-68
2022/11/09 10:18:37;;;;;;;2.88;2.53;;;19.50;56.00;;;;;;5031913;28;20199;-68
2022/11/09 10:21:19;;;;;;;2.72;2.50;;;19.50;55.90;;;;;;5035410;28;20678;-68
2022/11/09 10:23:55;;;;;;;2.45;2.25;;;19.50;55.90;;;;;;5035437;28;20289;-68
2022/11/09 10:26:23;;;;;;;3.08;2.47;;;19.50;55.90;;;;;;5035265;28;20569;-68
2022/11/09 10:28:55;;;;;;;2.67;2.20;;;19.60;55.90;;;;;;5035299;28;20219;-68
2022/11/09 10:31:23;;;;;;;2.60;2.40;;;19.50;55.90;;;;;;5035292;28;20188;-68
2022/11/09 10:33:56;;;;;;;2.55;2.35;;;19.60;55.90;;;;;;5035320;28;20651;-67
2022/11/09 10:36:27;;;;;;;3.67;2.40;;;19.60;55.90;;;;;;5036330;28;20632;-67
2022/11/09 10:38:55;;;;;;;2.45;2.25;;;19.60;55.90;;;;;;5035457;28;20242;-67
2022/11/09 10:41:43;;;;;;;2.40;2.20;;;19.60;55.90;;;;;;5036254;28;20698;-67
2022/11/09 10:44:28;;;;;;;2.60;2.40;;;19.60;55.90;;;;;;5036171;28;20187;-67
2022/11/09 10:47:17;;;;;;;2.55;2.35;;;19.60;55.90;;;;;;5036317;28;20223;-67
2022/11/09 10:50:07;;;;;;;2.40;2.22;;;19.60;55.90;;;;;;5036488;28;20186;-67
2022/11/09 10:53:06;;;;;;;2.30;2.10;;;19.60;55.80;;;;;;5036084;28;20338;-67
2022/11/09 10:55:53;;;;;;;2.55;2.20;;;19.70;55.70;;;;;;5036368;28;20187;-67
2022/11/09 10:58:40;;;;;;;3.17;2.28;;;19.70;55.60;;;;;;5036588;28;20547;-67
2022/11/09 11:01:32;;;;;;;2.40;2.20;;;19.70;55.70;;;;;;5036200;28;20218;-68
2022/11/09 11:04:20;;;;;;;2.40;2.20;;;19.70;55.50;;;;;;5036951;28;20215;-68
2022/11/09 11:07:13;;;;;;;2.20;2.00;;;19.70;55.50;;;;;;5036293;28;20588;-68
2022/11/09 11:10:11;;;;;;;2.30;2.10;;;19.80;55.60;;;;;;5036191;28;20190;-68
2022/11/09 11:13:21;;;;;;;2.33;2.13;;;19.80;55.70;;;;;;5035405;28;20665;-68
2022/11/09 11:16:15;;;;;;;3.53;2.00;;;19.80;55.60;;;;;;5035931;28;20243;-68
2022/11/09 11:19:01;;;;;;;3.10;2.30;;;19.80;55.50;;;;;;5036060;28;20191;-68
2022/11/09 11:21:47;;;;;;;2.50;2.30;;;19.80;55.40;;;;;;5035657;28;20215;-68
2022/11/09 11:24:41;;;;;;;2.67;2.20;;;19.90;55.40;;;;;;5035639;28;20230;-68
2022/11/09 11:27:32;;;;;;;4.13;1.90;;;19.90;55.50;;;;;;5035362;28;20243;-68
2022/11/09 11:30:21;;;;;;;2.17;1.98;;;19.80;55.50;;;;;;5035195;28;20207;-67
2022/11/09 11:33:11;;;;;;;2.20;2.00;;;19.80;55.40;;;;;;5035551;28;20184;-67
2022/11/09 11:36:02;;;;;;;2.30;2.10;;;19.80;55.50;;;;;;5035322;28;20303;-67
2022/11/09 11:38:52;;;;;;;2.22;2.00;;;19.80;55.40;;;;;;5035492;28;20207;-67
2022/11/09 11:41:51;;;;;;;2.10;2.00;;;19.90;55.50;;;;;;5035634;28;20219;-67
2022/11/09 11:44:47;;;;;;;2.65;2.10;;;19.90;55.40;;;;;;5035621;28;20238;-67
2022/11/09 11:47:37;;;;;;;3.30;2.08;;;19.90;55.30;;;;;;5035254;28;20575;-67
2022/11/09 11:50:30;;;;;;;2.90;2.33;;;19.90;55.40;;;;;;5035055;28;20188;-67
2022/11/09 11:53:31;;;;;;;2.22;2.05;;;19.90;55.30;;;;;;5035497;28;20215;-67
2022/11/09 11:56:24;;;;;;;2.05;1.88;;;19.90;55.30;;;;;;5035356;28;20187;-67
2022/11/09 11:59:27;;;;;;;2.15;2.00;;;19.90;55.30;;;;;;5035343;28;20187;-67
2022/11/09 12:02:30;;;;;;;2.10;1.90;;;19.90;55.50;;;;;;5035283;28;20203;-67
2022/11/09 12:05:45;;;;;;;2.25;2.05;;;19.90;55.50;;;;;;5035392;28;20186;-67
2022/11/09 12:08:36;;;;;;;2.83;2.10;;;19.80;55.40;;;;;;5035190;28;20183;-67
2022/11/09 12:11:37;;;;;;;2.10;1.90;;;19.90;55.30;;;;;;5035618;28;20180;-67
2022/11/09 12:14:31;;;;;;;1.80;1.70;;;19.90;55.20;;;;;;5035117;28;20183;-67
2022/11/09 12:17:21;;;;;;;2.20;2.00;;;19.90;55.10;;;;;;5034914;28;20227;-67
2022/11/09 12:20:17;;;;;;;1.77;1.67;;;20.00;55.10;;;;;;5034829;28;20187;-67
2022/11/09 12:23:21;;;;;;;2.13;1.90;;;20.00;55.00;;;;;;5034791;28;20199;-67
2022/11/09 12:26:14;;;;;;;2.10;2.00;;;20.00;54.80;;;;;;5034657;28;20187;-67
2022/11/09 12:29:06;;;;;;;2.05;1.85;;;20.10;54.80;;;;;;5034518;28;20230;-68
2022/11/09 12:31:58;;;;;;;2.35;1.80;;;20.10;54.60;;;;;;5034936;28;20815;-68
2022/11/09 12:34:47;;;;;;;1.98;1.88;;;20.10;54.70;;;;;;5034117;28;20192;-68
2022/11/09 12:37:34;;;;;;;1.75;1.65;;;20.20;54.70;;;;;;5035562;28;20235;-68
2022/11/09 12:40:23;;;;;;;1.88;1.77;;;20.20;54.70;;;;;;5035219;28;20187;-68
2022/11/09 12:43:14;;;;;;;2.60;1.85;;;20.20;54.70;;;;;;5033996;28;20183;-68
2022/11/09 12:46:00;;;;;;;1.92;1.73;;;20.20;54.80;;;;;;5034848;28;20556;-68
2022/11/09 12:48:45;;;;;;;2.13;1.92;;;20.20;54.80;;;;;;5034667;28;20650;-68
2022/11/09 12:51:32;;;;;;;2.70;2.03;;;20.20;54.60;;;;;;5034827;28;20650;-68
2022/11/09 12:54:18;;;;;;;2.00;1.75;;;20.20;54.70;;;;;;5034579;28;20673;-68
2022/11/09 12:57:06;;;;;;;2.03;1.83;;;20.20;54.80;;;;;;5034906;28;20583;-68
2022/11/09 12:59:53;;;;;;;1.85;1.75;;;20.20;54.70;;;;;;5036350;28;20183;-68
2022/11/09 13:02:52;;;;;;;1.92;1.83;;;20.20;54.70;;;;;;5038816;28;20183;-68
2022/11/09 13:05:39;;;;;;;1.80;1.70;;;20.20;54.70;;;;;;5034748;28;20277;-68
2022/11/09 13:08:28;;;;;;;2.08;1.88;;;20.30;54.80;;;;;;5034547;28;20736;-68
2022/11/09 13:11:20;;;;;;;2.10;1.90;;;20.20;54.70;;;;;;5034391;28;20187;-68
2022/11/09 13:14:34;;;;;;;1.83;1.60;;;20.30;54.80;;;;;;5033993;28;20191;-68
2022/11/09 13:17:51;;;;;;;2.65;1.60;;;20.30;54.80;;;;;;5034023;28;20222;-68
2022/11/09 13:20:44;;;;;;;2.08;1.88;;;20.30;54.80;;;;;;5033952;28;20289;-68